sensor_id;sensor_type;location;lat;lon;timestamp;P1;durP1;ratioP1;P2;durP2;ratioP2
67185;SDS011;54116;53.518;49.398;2023-04-25T00:02:10;10.65;;;2.92;;
67185;SDS011;54116;53.518;49.398;2023-04-25T00:04:36;10.13;;;2.50;;
67185;SDS011;54116;53.518;49.398;2023-04-25T00:07:03;9.80;;;2.63;;
67185;SDS011;54116;53.518;49.398;2023-04-25T00:09:30;9.32;;;2.88;;
67185;SDS011;54116;53.518;49.398;2023-04-25T00:11:56;9.15;;;2.70;;
67185;SDS011;54116;53.518;49.398;2023-04-25T00:14:25;9.52;;;2.85;;
67185;SDS011;54116;53.518;49.398;2023-04-25T00:16:53;9.00;;;2.80;;
67185;SDS011;54116;53.518;49.398;2023-04-25T00:19:19;8.48;;;2.80;;
67185;SDS011;54116;53.518;49.398;2023-04-25T00:21:45;8.40;;;2.97;;
67185;SDS011;54116;53.518;49.398;2023-04-25T00:24:12;15.30;;;3.42;;
67185;SDS011;54116;53.518;49.398;2023-04-25T00:26:38;9.77;;;3.08;;
67185;SDS011;54116;53.518;49.398;2023-04-25T00:29:04;9.70;;;2.95;;
67185;SDS011;54116;53.518;49.398;2023-04-25T00:31:30;10.43;;;2.97;;
67185;SDS011;54116;53.518;49.398;2023-04-25T00:33:56;11.98;;;2.78;;
67185;SDS011;54116;53.518;49.398;2023-04-25T00:36:22;13.82;;;3.33;;
67185;SDS011;54116;53.518;49.398;2023-04-25T00:38:49;9.48;;;3.58;;
67185;SDS011;54116;53.518;49.398;2023-04-25T00:41:15;9.13;;;2.90;;
67185;SDS011;54116;53.518;49.398;2023-04-25T00:43:41;15.18;;;3.60;;
67185;SDS011;54116;53.518;49.398;2023-04-25T00:46:08;10.43;;;2.88;;
67185;SDS011;54116;53.518;49.398;2023-04-25T00:48:34;12.40;;;3.33;;
67185;SDS011;54116;53.518;49.398;2023-04-25T00:51:00;12.15;;;3.80;;
67185;SDS011;54116;53.518;49.398;2023-04-25T00:53:27;10.55;;;2.95;;
67185;SDS011;54116;53.518;49.398;2023-04-25T00:55:53;12.45;;;3.38;;
67185;SDS011;54116;53.518;49.398;2023-04-25T00:58:20;10.90;;;3.40;;
67185;SDS011;54116;53.518;49.398;2023-04-25T01:00:48;8.73;;;3.22;;
67185;SDS011;54116;53.518;49.398;2023-04-25T01:03:16;14.70;;;3.35;;
67185;SDS011;54116;53.518;49.398;2023-04-25T01:05:42;12.52;;;3.22;;
67185;SDS011;54116;53.518;49.398;2023-04-25T01:08:09;6.95;;;3.30;;
67185;SDS011;54116;53.518;49.398;2023-04-25T01:10:35;9.65;;;3.20;;
67185;SDS011;54116;53.518;49.398;2023-04-25T01:13:02;9.13;;;3.10;;
67185;SDS011;54116;53.518;49.398;2023-04-25T01:15:28;8.98;;;3.08;;
67185;SDS011;54116;53.518;49.398;2023-04-25T01:17:55;11.07;;;3.88;;
67185;SDS011;54116;53.518;49.398;2023-04-25T01:20:22;12.60;;;3.25;;
67185;SDS011;54116;53.518;49.398;2023-04-25T01:22:52;9.05;;;3.15;;
67185;SDS011;54116;53.518;49.398;2023-04-25T01:25:18;11.57;;;3.03;;
67185;SDS011;54116;53.518;49.398;2023-04-25T01:27:45;12.32;;;3.30;;
67185;SDS011;54116;53.518;49.398;2023-04-25T01:30:12;9.50;;;3.22;;
67185;SDS011;54116;53.518;49.398;2023-04-25T01:32:39;10.45;;;2.83;;
67185;SDS011;54116;53.518;49.398;2023-04-25T01:35:07;8.13;;;3.13;;
67185;SDS011;54116;53.518;49.398;2023-04-25T01:37:41;9.25;;;3.13;;
67185;SDS011;54116;53.518;49.398;2023-04-25T01:40:09;9.32;;;3.42;;
67185;SDS011;54116;53.518;49.398;2023-04-25T01:42:37;9.75;;;3.17;;
67185;SDS011;54116;53.518;49.398;2023-04-25T01:45:05;8.48;;;2.88;;
67185;SDS011;54116;53.518;49.398;2023-04-25T01:47:32;10.07;;;2.85;;
67185;SDS011;54116;53.518;49.398;2023-04-25T01:50:01;9.20;;;2.75;;
67185;SDS011;54116;53.518;49.398;2023-04-25T01:52:28;11.88;;;3.13;;
67185;SDS011;54116;53.518;49.398;2023-04-25T01:54:55;8.23;;;2.67;;
67185;SDS011;54116;53.518;49.398;2023-04-25T01:57:23;11.40;;;3.15;;
67185;SDS011;54116;53.518;49.398;2023-04-25T01:59:49;12.15;;;3.15;;
67185;SDS011;54116;53.518;49.398;2023-04-25T02:02:15;10.68;;;3.20;;
67185;SDS011;54116;53.518;49.398;2023-04-25T02:04:42;12.93;;;3.28;;
67185;SDS011;54116;53.518;49.398;2023-04-25T02:07:08;8.77;;;2.67;;
67185;SDS011;54116;53.518;49.398;2023-04-25T02:09:34;13.02;;;3.20;;
67185;SDS011;54116;53.518;49.398;2023-04-25T02:12:00;7.88;;;2.80;;
67185;SDS011;54116;53.518;49.398;2023-04-25T02:14:27;12.50;;;2.95;;
67185;SDS011;54116;53.518;49.398;2023-04-25T02:16:54;7.75;;;2.60;;
67185;SDS011;54116;53.518;49.398;2023-04-25T02:19:24;10.10;;;3.10;;
67185;SDS011;54116;53.518;49.398;2023-04-25T02:21:51;10.40;;;3.00;;
67185;SDS011;54116;53.518;49.398;2023-04-25T02:24:17;10.18;;;2.78;;
67185;SDS011;54116;53.518;49.398;2023-04-25T02:26:43;8.63;;;2.95;;
67185;SDS011;54116;53.518;49.398;2023-04-25T02:29:10;13.35;;;2.63;;
67185;SDS011;54116;53.518;49.398;2023-04-25T02:31:36;8.65;;;2.78;;
67185;SDS011;54116;53.518;49.398;2023-04-25T02:34:02;7.63;;;2.70;;
67185;SDS011;54116;53.518;49.398;2023-04-25T02:36:28;5.85;;;2.53;;
67185;SDS011;54116;53.518;49.398;2023-04-25T02:38:57;9.30;;;2.90;;
67185;SDS011;54116;53.518;49.398;2023-04-25T02:41:23;11.63;;;2.78;;
67185;SDS011;54116;53.518;49.398;2023-04-25T02:43:51;8.00;;;2.30;;
67185;SDS011;54116;53.518;49.398;2023-04-25T02:46:17;9.18;;;2.72;;
67185;SDS011;54116;53.518;49.398;2023-04-25T02:48:43;8.23;;;2.78;;
67185;SDS011;54116;53.518;49.398;2023-04-25T02:51:10;10.43;;;2.97;;
67185;SDS011;54116;53.518;49.398;2023-04-25T02:53:36;12.82;;;2.58;;
67185;SDS011;54116;53.518;49.398;2023-04-25T02:56:02;9.63;;;2.88;;
67185;SDS011;54116;53.518;49.398;2023-04-25T02:58:28;12.10;;;2.92;;
67185;SDS011;54116;53.518;49.398;2023-04-25T03:00:54;9.00;;;2.42;;
67185;SDS011;54116;53.518;49.398;2023-04-25T03:03:20;9.55;;;3.00;;
67185;SDS011;54116;53.518;49.398;2023-04-25T03:05:52;9.82;;;2.40;;
67185;SDS011;54116;53.518;49.398;2023-04-25T03:08:18;9.05;;;2.30;;
67185;SDS011;54116;53.518;49.398;2023-04-25T03:10:44;10.00;;;2.95;;
67185;SDS011;54116;53.518;49.398;2023-04-25T03:13:11;8.88;;;2.97;;
67185;SDS011;54116;53.518;49.398;2023-04-25T03:15:38;7.70;;;2.63;;
67185;SDS011;54116;53.518;49.398;2023-04-25T03:18:04;11.75;;;2.65;;
67185;SDS011;54116;53.518;49.398;2023-04-25T03:20:30;11.70;;;3.35;;
67185;SDS011;54116;53.518;49.398;2023-04-25T03:22:56;8.90;;;2.72;;
67185;SDS011;54116;53.518;49.398;2023-04-25T03:25:22;9.18;;;2.78;;
67185;SDS011;54116;53.518;49.398;2023-04-25T03:27:48;8.50;;;2.95;;
67185;SDS011;54116;53.518;49.398;2023-04-25T03:30:15;11.57;;;4.07;;
67185;SDS011;54116;53.518;49.398;2023-04-25T03:32:41;9.40;;;3.78;;
67185;SDS011;54116;53.518;49.398;2023-04-25T03:35:07;12.38;;;3.08;;
67185;SDS011;54116;53.518;49.398;2023-04-25T03:37:33;9.40;;;3.72;;
67185;SDS011;54116;53.518;49.398;2023-04-25T03:40:00;11.38;;;3.50;;
67185;SDS011;54116;53.518;49.398;2023-04-25T03:42:26;7.93;;;3.38;;
67185;SDS011;54116;53.518;49.398;2023-04-25T03:44:52;7.47;;;3.28;;
67185;SDS011;54116;53.518;49.398;2023-04-25T03:47:18;7.45;;;2.53;;
67185;SDS011;54116;53.518;49.398;2023-04-25T03:49:45;11.63;;;3.22;;
67185;SDS011;54116;53.518;49.398;2023-04-25T03:52:11;8.20;;;3.17;;
67185;SDS011;54116;53.518;49.398;2023-04-25T03:54:37;10.45;;;3.83;;
67185;SDS011;54116;53.518;49.398;2023-04-25T03:57:03;10.68;;;3.47;;
67185;SDS011;54116;53.518;49.398;2023-04-25T03:59:29;10.73;;;3.33;;
67185;SDS011;54116;53.518;49.398;2023-04-25T04:01:56;7.18;;;2.78;;
67185;SDS011;54116;53.518;49.398;2023-04-25T04:04:23;8.27;;;2.55;;
67185;SDS011;54116;53.518;49.398;2023-04-25T04:06:49;9.85;;;3.33;;
67185;SDS011;54116;53.518;49.398;2023-04-25T04:09:21;7.60;;;2.45;;
67185;SDS011;54116;53.518;49.398;2023-04-25T04:11:47;12.00;;;2.90;;
67185;SDS011;54116;53.518;49.398;2023-04-25T04:14:13;11.52;;;3.05;;
67185;SDS011;54116;53.518;49.398;2023-04-25T04:16:40;11.50;;;3.10;;
67185;SDS011;54116;53.518;49.398;2023-04-25T04:19:06;13.57;;;3.08;;
67185;SDS011;54116;53.518;49.398;2023-04-25T04:21:32;11.65;;;3.22;;
67185;SDS011;54116;53.518;49.398;2023-04-25T04:23:59;13.35;;;3.05;;
67185;SDS011;54116;53.518;49.398;2023-04-25T04:26:25;14.68;;;3.05;;
67185;SDS011;54116;53.518;49.398;2023-04-25T04:28:52;11.27;;;3.17;;
67185;SDS011;54116;53.518;49.398;2023-04-25T04:31:23;13.07;;;3.22;;
67185;SDS011;54116;53.518;49.398;2023-04-25T04:34:07;8.05;;;2.72;;
67185;SDS011;54116;53.518;49.398;2023-04-25T04:39:18;11.18;;;3.13;;
67185;SDS011;54116;53.518;49.398;2023-04-25T04:41:46;9.27;;;2.50;;
67185;SDS011;54116;53.518;49.398;2023-04-25T04:44:12;9.18;;;2.42;;
67185;SDS011;54116;53.518;49.398;2023-04-25T04:46:39;10.93;;;2.65;;
67185;SDS011;54116;53.518;49.398;2023-04-25T04:49:10;13.38;;;2.72;;
67185;SDS011;54116;53.518;49.398;2023-04-25T04:54:26;9.60;;;2.88;;
67185;SDS011;54116;53.518;49.398;2023-04-25T04:56:52;11.07;;;3.75;;
67185;SDS011;54116;53.518;49.398;2023-04-25T04:59:18;12.35;;;2.53;;
67185;SDS011;54116;53.518;49.398;2023-04-25T05:01:44;7.93;;;2.67;;
67185;SDS011;54116;53.518;49.398;2023-04-25T05:04:12;10.68;;;2.70;;
67185;SDS011;54116;53.518;49.398;2023-04-25T05:06:38;7.90;;;2.88;;
67185;SDS011;54116;53.518;49.398;2023-04-25T05:09:04;8.18;;;2.65;;
67185;SDS011;54116;53.518;49.398;2023-04-25T05:11:30;10.75;;;2.78;;
67185;SDS011;54116;53.518;49.398;2023-04-25T05:13:56;9.10;;;2.53;;
67185;SDS011;54116;53.518;49.398;2023-04-25T05:16:27;8.50;;;2.40;;
67185;SDS011;54116;53.518;49.398;2023-04-25T05:18:53;9.85;;;2.67;;
67185;SDS011;54116;53.518;49.398;2023-04-25T05:21:24;9.95;;;2.78;;
67185;SDS011;54116;53.518;49.398;2023-04-25T05:23:55;8.18;;;2.28;;
67185;SDS011;54116;53.518;49.398;2023-04-25T05:26:21;9.50;;;2.50;;
67185;SDS011;54116;53.518;49.398;2023-04-25T05:28:52;9.40;;;2.17;;
67185;SDS011;54116;53.518;49.398;2023-04-25T05:31:24;7.90;;;2.58;;
67185;SDS011;54116;53.518;49.398;2023-04-25T05:34:28;7.80;;;2.95;;
67185;SDS011;54116;53.518;49.398;2023-04-25T05:36:54;18.40;;;2.90;;
67185;SDS011;54116;53.518;49.398;2023-04-25T05:39:20;12.80;;;2.63;;
67185;SDS011;54116;53.518;49.398;2023-04-25T05:41:47;7.60;;;2.20;;
67185;SDS011;54116;53.518;49.398;2023-04-25T05:44:13;8.25;;;2.55;;
67185;SDS011;54116;53.518;49.398;2023-04-25T05:46:39;10.32;;;2.35;;
67185;SDS011;54116;53.518;49.398;2023-04-25T05:51:55;6.25;;;2.20;;
67185;SDS011;54116;53.518;49.398;2023-04-25T05:54:21;11.02;;;2.30;;
67185;SDS011;54116;53.518;49.398;2023-04-25T05:56:52;9.25;;;2.70;;
67185;SDS011;54116;53.518;49.398;2023-04-25T06:02:03;8.15;;;2.80;;
67185;SDS011;54116;53.518;49.398;2023-04-25T06:04:29;12.68;;;2.45;;
67185;SDS011;54116;53.518;49.398;2023-04-25T06:06:55;6.15;;;2.30;;
67185;SDS011;54116;53.518;49.398;2023-04-25T06:09:21;9.40;;;2.70;;
67185;SDS011;54116;53.518;49.398;2023-04-25T06:12:06;8.00;;;2.15;;
67185;SDS011;54116;53.518;49.398;2023-04-25T06:14:33;10.05;;;2.65;;
67185;SDS011;54116;53.518;49.398;2023-04-25T06:16:59;6.63;;;2.50;;
67185;SDS011;54116;53.518;49.398;2023-04-25T06:19:32;6.85;;;2.65;;
67185;SDS011;54116;53.518;49.398;2023-04-25T06:22:17;6.20;;;2.28;;
67185;SDS011;54116;53.518;49.398;2023-04-25T06:24:43;8.40;;;2.55;;
67185;SDS011;54116;53.518;49.398;2023-04-25T06:27:09;9.38;;;2.55;;
67185;SDS011;54116;53.518;49.398;2023-04-25T06:29:35;10.73;;;2.50;;
67185;SDS011;54116;53.518;49.398;2023-04-25T06:37:17;12.10;;;2.50;;
67185;SDS011;54116;53.518;49.398;2023-04-25T06:39:48;8.90;;;2.42;;
67185;SDS011;54116;53.518;49.398;2023-04-25T06:42:14;6.88;;;2.17;;
67185;SDS011;54116;53.518;49.398;2023-04-25T06:44:58;10.88;;;2.72;;
67185;SDS011;54116;53.518;49.398;2023-04-25T06:47:25;11.18;;;2.28;;
67185;SDS011;54116;53.518;49.398;2023-04-25T06:49:52;9.30;;;2.42;;
67185;SDS011;54116;53.518;49.398;2023-04-25T06:52:18;10.73;;;2.15;;
67185;SDS011;54116;53.518;49.398;2023-04-25T06:54:44;9.10;;;2.20;;
67185;SDS011;54116;53.518;49.398;2023-04-25T06:57:11;8.75;;;2.40;;
67185;SDS011;54116;53.518;49.398;2023-04-25T06:59:42;6.40;;;2.13;;
67185;SDS011;54116;53.518;49.398;2023-04-25T07:02:08;9.20;;;2.42;;
67185;SDS011;54116;53.518;49.398;2023-04-25T07:04:35;9.38;;;2.53;;
67185;SDS011;54116;53.518;49.398;2023-04-25T07:07:01;10.38;;;2.70;;
67185;SDS011;54116;53.518;49.398;2023-04-25T07:09:29;11.45;;;2.97;;
67185;SDS011;54116;53.518;49.398;2023-04-25T07:12:00;11.82;;;2.50;;
67185;SDS011;54116;53.518;49.398;2023-04-25T07:14:27;10.90;;;2.75;;
67185;SDS011;54116;53.518;49.398;2023-04-25T07:16:53;9.88;;;2.90;;
67185;SDS011;54116;53.518;49.398;2023-04-25T07:19:22;12.70;;;2.80;;
67185;SDS011;54116;53.518;49.398;2023-04-25T07:21:52;8.00;;;2.78;;
67185;SDS011;54116;53.518;49.398;2023-04-25T07:24:23;10.40;;;2.83;;
67185;SDS011;54116;53.518;49.398;2023-04-25T07:26:49;7.30;;;2.40;;
67185;SDS011;54116;53.518;49.398;2023-04-25T07:29:16;8.27;;;2.78;;
67185;SDS011;54116;53.518;49.398;2023-04-25T07:31:42;9.52;;;2.55;;
67185;SDS011;54116;53.518;49.398;2023-04-25T07:34:08;10.02;;;2.55;;
67185;SDS011;54116;53.518;49.398;2023-04-25T07:36:35;6.80;;;2.53;;
67185;SDS011;54116;53.518;49.398;2023-04-25T07:39:02;7.15;;;2.22;;
67185;SDS011;54116;53.518;49.398;2023-04-25T07:44:18;8.52;;;2.17;;
67185;SDS011;54116;53.518;49.398;2023-04-25T07:46:44;9.23;;;2.50;;
67185;SDS011;54116;53.518;49.398;2023-04-25T07:49:11;8.18;;;1.85;;
67185;SDS011;54116;53.518;49.398;2023-04-25T07:51:55;7.68;;;2.05;;
67185;SDS011;54116;53.518;49.398;2023-04-25T07:54:21;8.00;;;2.00;;
67185;SDS011;54116;53.518;49.398;2023-04-25T07:56:52;10.02;;;2.35;;
67185;SDS011;54116;53.518;49.398;2023-04-25T07:59:37;7.63;;;1.75;;
67185;SDS011;54116;53.518;49.398;2023-04-25T08:02:03;6.82;;;2.05;;
67185;SDS011;54116;53.518;49.398;2023-04-25T08:04:29;5.70;;;1.70;;
67185;SDS011;54116;53.518;49.398;2023-04-25T08:06:55;8.48;;;1.67;;
67185;SDS011;54116;53.518;49.398;2023-04-25T08:09:45;7.95;;;1.80;;
67185;SDS011;54116;53.518;49.398;2023-04-25T08:12:11;7.10;;;2.22;;
67185;SDS011;54116;53.518;49.398;2023-04-25T08:14:37;6.60;;;1.73;;
67185;SDS011;54116;53.518;49.398;2023-04-25T08:17:05;6.18;;;1.95;;
67185;SDS011;54116;53.518;49.398;2023-04-25T08:19:31;6.78;;;1.85;;
67185;SDS011;54116;53.518;49.398;2023-04-25T08:21:57;8.27;;;2.03;;
67185;SDS011;54116;53.518;49.398;2023-04-25T08:24:23;4.85;;;1.83;;
67185;SDS011;54116;53.518;49.398;2023-04-25T08:26:49;6.28;;;1.92;;
67185;SDS011;54116;53.518;49.398;2023-04-25T08:29:15;8.70;;;2.05;;
67185;SDS011;54116;53.518;49.398;2023-04-25T08:31:41;5.90;;;1.50;;
67185;SDS011;54116;53.518;49.398;2023-04-25T08:34:07;8.23;;;1.80;;
67185;SDS011;54116;53.518;49.398;2023-04-25T08:36:52;9.38;;;1.95;;
67185;SDS011;54116;53.518;49.398;2023-04-25T08:39:18;13.48;;;2.30;;
67185;SDS011;54116;53.518;49.398;2023-04-25T08:41:46;7.88;;;1.92;;
67185;SDS011;54116;53.518;49.398;2023-04-25T08:44:13;7.25;;;1.85;;
67185;SDS011;54116;53.518;49.398;2023-04-25T08:46:40;5.03;;;1.70;;
67185;SDS011;54116;53.518;49.398;2023-04-25T08:49:07;7.57;;;2.13;;
67185;SDS011;54116;53.518;49.398;2023-04-25T08:51:40;7.85;;;1.98;;
67185;SDS011;54116;53.518;49.398;2023-04-25T08:54:13;7.43;;;1.80;;
67185;SDS011;54116;53.518;49.398;2023-04-25T08:56:46;9.05;;;2.05;;
67185;SDS011;54116;53.518;49.398;2023-04-25T08:59:18;8.40;;;1.75;;
67185;SDS011;54116;53.518;49.398;2023-04-25T09:01:45;14.48;;;2.45;;
67185;SDS011;54116;53.518;49.398;2023-04-25T09:04:11;5.88;;;2.00;;
67185;SDS011;54116;53.518;49.398;2023-04-25T09:09:27;8.90;;;1.92;;
67185;SDS011;54116;53.518;49.398;2023-04-25T09:14:27;8.07;;;2.17;;
67185;SDS011;54116;53.518;49.398;2023-04-25T09:19:22;8.98;;;2.50;;
67185;SDS011;54116;53.518;49.398;2023-04-25T09:21:49;8.23;;;2.08;;
67185;SDS011;54116;53.518;49.398;2023-04-25T09:24:15;8.90;;;2.85;;
67185;SDS011;54116;53.518;49.398;2023-04-25T09:26:41;10.10;;;2.72;;
67185;SDS011;54116;53.518;49.398;2023-04-25T09:29:09;6.13;;;2.47;;
67185;SDS011;54116;53.518;49.398;2023-04-25T09:34:40;7.40;;;2.13;;
67185;SDS011;54116;53.518;49.398;2023-04-25T09:37:11;10.10;;;2.40;;
67185;SDS011;54116;53.518;49.398;2023-04-25T09:39:37;9.38;;;2.50;;
67185;SDS011;54116;53.518;49.398;2023-04-25T09:42:08;9.23;;;2.40;;
67185;SDS011;54116;53.518;49.398;2023-04-25T09:44:35;10.25;;;2.80;;
67185;SDS011;54116;53.518;49.398;2023-04-25T09:47:01;10.63;;;2.58;;
67185;SDS011;54116;53.518;49.398;2023-04-25T09:49:28;11.68;;;3.13;;
67185;SDS011;54116;53.518;49.398;2023-04-25T09:51:58;11.93;;;3.88;;
67185;SDS011;54116;53.518;49.398;2023-04-25T09:54:26;11.93;;;2.97;;
67185;SDS011;54116;53.518;49.398;2023-04-25T09:56:53;9.02;;;3.45;;
67185;SDS011;54116;53.518;49.398;2023-04-25T09:59:20;11.60;;;4.47;;
67185;SDS011;54116;53.518;49.398;2023-04-25T10:07:03;6.15;;;1.63;;
67185;SDS011;54116;53.518;49.398;2023-04-25T10:09:32;6.78;;;2.35;;
67185;SDS011;54116;53.518;49.398;2023-04-25T10:12:00;6.28;;;1.73;;
67185;SDS011;54116;53.518;49.398;2023-04-25T10:14:26;8.02;;;1.95;;
67185;SDS011;54116;53.518;49.398;2023-04-25T10:16:53;6.25;;;1.98;;
67185;SDS011;54116;53.518;49.398;2023-04-25T10:19:21;7.57;;;2.25;;
67185;SDS011;54116;53.518;49.398;2023-04-25T10:22:34;5.50;;;2.15;;
67185;SDS011;54116;53.518;49.398;2023-04-25T10:24:46;6.70;;;2.30;;
67185;SDS011;54116;53.518;49.398;2023-04-25T10:30:08;7.85;;;2.30;;
67185;SDS011;54116;53.518;49.398;2023-04-25T10:32:44;8.27;;;2.10;;
67185;SDS011;54116;53.518;49.398;2023-04-25T10:35:29;7.28;;;2.03;;
67185;SDS011;54116;53.518;49.398;2023-04-25T10:40:33;7.80;;;2.15;;
67185;SDS011;54116;53.518;49.398;2023-04-25T10:45:57;10.02;;;2.20;;
67185;SDS011;54116;53.518;49.398;2023-04-25T10:48:26;6.50;;;2.05;;
67185;SDS011;54116;53.518;49.398;2023-04-25T10:51:09;8.38;;;2.15;;
67185;SDS011;54116;53.518;49.398;2023-04-25T10:53:45;8.07;;;2.28;;
67185;SDS011;54116;53.518;49.398;2023-04-25T10:59:11;10.25;;;1.92;;
67185;SDS011;54116;53.518;49.398;2023-04-25T11:04:05;6.38;;;1.98;;
67185;SDS011;54116;53.518;49.398;2023-04-25T11:09:23;7.15;;;1.95;;
67185;SDS011;54116;53.518;49.398;2023-04-25T11:11:54;9.48;;;2.45;;
67185;SDS011;54116;53.518;49.398;2023-04-25T11:14:21;8.57;;;2.17;;
67185;SDS011;54116;53.518;49.398;2023-04-25T11:16:52;12.63;;;2.50;;
67185;SDS011;54116;53.518;49.398;2023-04-25T11:19:21;8.40;;;2.63;;
67185;SDS011;54116;53.518;49.398;2023-04-25T11:21:47;6.15;;;2.05;;
67185;SDS011;54116;53.518;49.398;2023-04-25T11:24:13;6.05;;;2.13;;
67185;SDS011;54116;53.518;49.398;2023-04-25T11:26:41;6.30;;;2.10;;
67185;SDS011;54116;53.518;49.398;2023-04-25T11:29:08;8.75;;;2.67;;
67185;SDS011;54116;53.518;49.398;2023-04-25T11:31:34;6.68;;;2.55;;
67185;SDS011;54116;53.518;49.398;2023-04-25T11:34:03;6.57;;;2.20;;
67185;SDS011;54116;53.518;49.398;2023-04-25T11:36:29;8.15;;;1.98;;
67185;SDS011;54116;53.518;49.398;2023-04-25T11:39:01;5.88;;;1.80;;
67185;SDS011;54116;53.518;49.398;2023-04-25T11:41:28;5.28;;;2.17;;
67185;SDS011;54116;53.518;49.398;2023-04-25T11:43:54;6.90;;;2.30;;
67185;SDS011;54116;53.518;49.398;2023-04-25T11:46:38;6.35;;;1.90;;
67185;SDS011;54116;53.518;49.398;2023-04-25T11:49:05;6.65;;;2.55;;
67185;SDS011;54116;53.518;49.398;2023-04-25T11:54:17;7.25;;;2.33;;
67185;SDS011;54116;53.518;49.398;2023-04-25T11:56:44;9.13;;;2.08;;
67185;SDS011;54116;53.518;49.398;2023-04-25T11:59:11;8.18;;;2.22;;
67185;SDS011;54116;53.518;49.398;2023-04-25T12:01:39;10.20;;;2.40;;
67185;SDS011;54116;53.518;49.398;2023-04-25T12:04:13;7.95;;;2.25;;
67185;SDS011;54116;53.518;49.398;2023-04-25T12:06:46;7.72;;;2.20;;
67185;SDS011;54116;53.518;49.398;2023-04-25T12:09:16;9.63;;;2.35;;
67185;SDS011;54116;53.518;49.398;2023-04-25T12:11:44;8.50;;;2.78;;
67185;SDS011;54116;53.518;49.398;2023-04-25T12:14:12;12.10;;;3.20;;
67185;SDS011;54116;53.518;49.398;2023-04-25T12:16:47;11.52;;;3.88;;
67185;SDS011;54116;53.518;49.398;2023-04-25T12:19:15;9.68;;;3.90;;
67185;SDS011;54116;53.518;49.398;2023-04-25T12:22:03;9.20;;;3.80;;
67185;SDS011;54116;53.518;49.398;2023-04-25T12:24:48;10.55;;;4.32;;
67185;SDS011;54116;53.518;49.398;2023-04-25T12:27:40;10.15;;;4.95;;
67185;SDS011;54116;53.518;49.398;2023-04-25T12:30:08;12.65;;;3.80;;
67185;SDS011;54116;53.518;49.398;2023-04-25T12:32:36;13.65;;;6.35;;
67185;SDS011;54116;53.518;49.398;2023-04-25T12:35:04;13.40;;;5.70;;
67185;SDS011;54116;53.518;49.398;2023-04-25T12:37:32;12.00;;;4.38;;
67185;SDS011;54116;53.518;49.398;2023-04-25T12:39:58;24.00;;;11.02;;
67185;SDS011;54116;53.518;49.398;2023-04-25T12:42:25;14.40;;;7.38;;
67185;SDS011;54116;53.518;49.398;2023-04-25T12:44:51;16.15;;;8.80;;
67185;SDS011;54116;53.518;49.398;2023-04-25T12:47:17;20.15;;;11.38;;
67185;SDS011;54116;53.518;49.398;2023-04-25T12:49:43;23.15;;;13.68;;
67185;SDS011;54116;53.518;49.398;2023-04-25T12:52:09;25.13;;;13.10;;
67185;SDS011;54116;53.518;49.398;2023-04-25T12:54:35;20.50;;;12.45;;
67185;SDS011;54116;53.518;49.398;2023-04-25T12:57:02;18.10;;;8.85;;
67185;SDS011;54116;53.518;49.398;2023-04-25T13:04:39;12.68;;;6.47;;
67185;SDS011;54116;53.518;49.398;2023-04-25T13:07:25;15.45;;;6.53;;
67185;SDS011;54116;53.518;49.398;2023-04-25T13:09:52;14.18;;;5.35;;
67185;SDS011;54116;53.518;49.398;2023-04-25T13:12:19;12.52;;;4.80;;
67185;SDS011;54116;53.518;49.398;2023-04-25T13:14:45;13.02;;;5.60;;
67185;SDS011;54116;53.518;49.398;2023-04-25T13:17:11;13.52;;;5.50;;
67185;SDS011;54116;53.518;49.398;2023-04-25T13:19:42;13.93;;;6.10;;
67185;SDS011;54116;53.518;49.398;2023-04-25T13:22:08;11.68;;;6.32;;
67185;SDS011;54116;53.518;49.398;2023-04-25T13:24:34;12.25;;;5.78;;
67185;SDS011;54116;53.518;49.398;2023-04-25T13:27:00;15.75;;;5.93;;
67185;SDS011;54116;53.518;49.398;2023-04-25T13:29:26;15.20;;;6.00;;
67185;SDS011;54116;53.518;49.398;2023-04-25T13:31:52;16.40;;;6.55;;
67185;SDS011;54116;53.518;49.398;2023-04-25T13:37:03;14.05;;;5.72;;
67185;SDS011;54116;53.518;49.398;2023-04-25T13:39:30;14.40;;;5.88;;
67185;SDS011;54116;53.518;49.398;2023-04-25T13:41:57;16.73;;;5.75;;
67185;SDS011;54116;53.518;49.398;2023-04-25T13:44:23;13.43;;;5.32;;
67185;SDS011;54116;53.518;49.398;2023-04-25T13:46:49;9.13;;;4.32;;
67185;SDS011;54116;53.518;49.398;2023-04-25T13:49:15;11.23;;;4.85;;
67185;SDS011;54116;53.518;49.398;2023-04-25T13:54:27;12.90;;;5.20;;
67185;SDS011;54116;53.518;49.398;2023-04-25T13:56:53;13.27;;;5.20;;
67185;SDS011;54116;53.518;49.398;2023-04-25T13:59:38;14.82;;;5.53;;
67185;SDS011;54116;53.518;49.398;2023-04-25T14:02:06;16.17;;;6.22;;
67185;SDS011;54116;53.518;49.398;2023-04-25T14:04:33;12.02;;;5.75;;
67185;SDS011;54116;53.518;49.398;2023-04-25T14:12:31;17.27;;;5.93;;
67185;SDS011;54116;53.518;49.398;2023-04-25T14:14:58;10.70;;;5.65;;
67185;SDS011;54116;53.518;49.398;2023-04-25T14:17:24;9.18;;;4.65;;
67185;SDS011;54116;53.518;49.398;2023-04-25T14:19:50;10.30;;;4.75;;
67185;SDS011;54116;53.518;49.398;2023-04-25T14:22:16;13.13;;;6.07;;
67185;SDS011;54116;53.518;49.398;2023-04-25T14:24:43;10.75;;;5.60;;
67185;SDS011;54116;53.518;49.398;2023-04-25T14:27:09;12.25;;;5.18;;
67185;SDS011;54116;53.518;49.398;2023-04-25T14:29:35;16.98;;;7.03;;
67185;SDS011;54116;53.518;49.398;2023-04-25T14:34:46;15.52;;;6.75;;
67185;SDS011;54116;53.518;49.398;2023-04-25T14:37:12;16.45;;;6.50;;
67185;SDS011;54116;53.518;49.398;2023-04-25T14:39:38;19.60;;;7.32;;
67185;SDS011;54116;53.518;49.398;2023-04-25T14:42:05;14.13;;;8.05;;
67185;SDS011;54116;53.518;49.398;2023-04-25T14:44:31;12.98;;;6.57;;
67185;SDS011;54116;53.518;49.398;2023-04-25T14:46:57;14.80;;;6.63;;
67185;SDS011;54116;53.518;49.398;2023-04-25T14:49:23;17.00;;;8.05;;
67185;SDS011;54116;53.518;49.398;2023-04-25T14:51:49;15.45;;;7.35;;
67185;SDS011;54116;53.518;49.398;2023-04-25T14:57:01;20.85;;;8.48;;
67185;SDS011;54116;53.518;49.398;2023-04-25T14:59:28;19.75;;;8.40;;
67185;SDS011;54116;53.518;49.398;2023-04-25T15:01:54;17.35;;;8.10;;
67185;SDS011;54116;53.518;49.398;2023-04-25T15:04:22;17.60;;;8.23;;
67185;SDS011;54116;53.518;49.398;2023-04-25T15:06:48;24.40;;;9.23;;
67185;SDS011;54116;53.518;49.398;2023-04-25T15:09:14;21.30;;;9.57;;
67185;SDS011;54116;53.518;49.398;2023-04-25T15:11:42;22.70;;;9.60;;
67185;SDS011;54116;53.518;49.398;2023-04-25T15:14:08;20.42;;;9.20;;
67185;SDS011;54116;53.518;49.398;2023-04-25T15:19:20;20.63;;;9.30;;
67185;SDS011;54116;53.518;49.398;2023-04-25T15:21:46;20.58;;;8.43;;
67185;SDS011;54116;53.518;49.398;2023-04-25T15:24:13;18.13;;;9.43;;
67185;SDS011;54116;53.518;49.398;2023-04-25T15:26:40;14.85;;;8.50;;
67185;SDS011;54116;53.518;49.398;2023-04-25T15:29:06;13.35;;;7.28;;
67185;SDS011;54116;53.518;49.398;2023-04-25T15:31:32;16.42;;;7.50;;
67185;SDS011;54116;53.518;49.398;2023-04-25T15:34:17;14.93;;;6.03;;
67185;SDS011;54116;53.518;49.398;2023-04-25T15:39:27;16.98;;;6.78;;
67185;SDS011;54116;53.518;49.398;2023-04-25T15:41:54;14.38;;;7.13;;
67185;SDS011;54116;53.518;49.398;2023-04-25T15:44:20;16.55;;;6.82;;
67185;SDS011;54116;53.518;49.398;2023-04-25T15:46:46;15.65;;;7.60;;
67185;SDS011;54116;53.518;49.398;2023-04-25T15:49:12;15.35;;;6.72;;
67185;SDS011;54116;53.518;49.398;2023-04-25T15:51:38;12.60;;;5.72;;
67185;SDS011;54116;53.518;49.398;2023-04-25T15:54:05;12.57;;;5.50;;
67185;SDS011;54116;53.518;49.398;2023-04-25T15:56:49;12.68;;;6.00;;